sensor_id;sensor_type;location;lat;lon;timestamp;P1;durP1;ratioP1;P2;durP2;ratioP2
16660;SDS011;8444;52.012;5.048;2024-01-30T00:00:06;19.53;;;12.23;;
16660;SDS011;8444;52.012;5.048;2024-01-30T00:02:31;19.57;;;12.90;;
16660;SDS011;8444;52.012;5.048;2024-01-30T00:04:57;19.27;;;13.13;;
16660;SDS011;8444;52.012;5.048;2024-01-30T00:07:22;19.17;;;12.37;;
16660;SDS011;8444;52.012;5.048;2024-01-30T00:09:47;24.03;;;12.03;;
16660;SDS011;8444;52.012;5.048;2024-01-30T00:12:13;20.40;;;12.93;;
16660;SDS011;8444;52.012;5.048;2024-01-30T00:14:38;22.13;;;12.10;;
16660;SDS011;8444;52.012;5.048;2024-01-30T00:17:03;15.10;;;10.93;;
16660;SDS011;8444;52.012;5.048;2024-01-30T00:19:29;19.67;;;12.03;;
16660;SDS011;8444;52.012;5.048;2024-01-30T00:21:54;18.90;;;11.83;;
16660;SDS011;8444;52.012;5.048;2024-01-30T00:24:19;19.00;;;10.83;;
16660;SDS011;8444;52.012;5.048;2024-01-30T00:26:45;16.13;;;11.30;;
16660;SDS011;8444;52.012;5.048;2024-01-30T00:29:10;20.23;;;12.57;;
16660;SDS011;8444;52.012;5.048;2024-01-30T00:31:35;17.00;;;11.07;;
16660;SDS011;8444;52.012;5.048;2024-01-30T00:34:00;15.90;;;11.33;;
16660;SDS011;8444;52.012;5.048;2024-01-30T00:36:26;17.30;;;10.47;;
16660;SDS011;8444;52.012;5.048;2024-01-30T00:38:51;19.80;;;12.10;;
16660;SDS011;8444;52.012;5.048;2024-01-30T00:41:19;16.10;;;11.73;;
16660;SDS011;8444;52.012;5.048;2024-01-30T00:43:44;17.20;;;11.23;;
16660;SDS011;8444;52.012;5.048;2024-01-30T00:46:09;16.77;;;11.07;;
16660;SDS011;8444;52.012;5.048;2024-01-30T00:48:35;17.73;;;10.53;;
16660;SDS011;8444;52.012;5.048;2024-01-30T00:51:00;17.33;;;11.53;;
16660;SDS011;8444;52.012;5.048;2024-01-30T00:53:25;17.90;;;10.57;;
16660;SDS011;8444;52.012;5.048;2024-01-30T00:55:51;16.87;;;10.57;;
16660;SDS011;8444;52.012;5.048;2024-01-30T00:58:16;15.67;;;11.17;;
16660;SDS011;8444;52.012;5.048;2024-01-30T01:00:41;16.53;;;10.20;;
16660;SDS011;8444;52.012;5.048;2024-01-30T01:03:06;18.10;;;11.40;;
16660;SDS011;8444;52.012;5.048;2024-01-30T01:05:31;15.03;;;10.93;;
16660;SDS011;8444;52.012;5.048;2024-01-30T01:07:57;17.37;;;11.57;;
16660;SDS011;8444;52.012;5.048;2024-01-30T01:10:22;18.47;;;11.97;;
16660;SDS011;8444;52.012;5.048;2024-01-30T01:12:48;24.30;;;11.00;;
16660;SDS011;8444;52.012;5.048;2024-01-30T01:15:13;24.10;;;11.37;;
16660;SDS011;8444;52.012;5.048;2024-01-30T01:17:38;16.33;;;11.20;;
16660;SDS011;8444;52.012;5.048;2024-01-30T01:20:04;21.00;;;11.93;;
16660;SDS011;8444;52.012;5.048;2024-01-30T01:22:33;19.70;;;11.70;;
16660;SDS011;8444;52.012;5.048;2024-01-30T01:24:59;19.20;;;11.67;;
16660;SDS011;8444;52.012;5.048;2024-01-30T01:27:24;18.83;;;10.60;;
16660;SDS011;8444;52.012;5.048;2024-01-30T01:29:50;18.43;;;11.27;;
16660;SDS011;8444;52.012;5.048;2024-01-30T01:32:15;19.57;;;11.40;;
16660;SDS011;8444;52.012;5.048;2024-01-30T01:34:40;14.50;;;10.20;;
16660;SDS011;8444;52.012;5.048;2024-01-30T01:37:05;17.53;;;11.67;;
16660;SDS011;8444;52.012;5.048;2024-01-30T01:39:30;18.33;;;11.53;;
16660;SDS011;8444;52.012;5.048;2024-01-30T01:41:56;18.27;;;11.37;;
16660;SDS011;8444;52.012;5.048;2024-01-30T01:44:21;14.90;;;10.17;;
16660;SDS011;8444;52.012;5.048;2024-01-30T01:46:46;16.97;;;10.93;;
16660;SDS011;8444;52.012;5.048;2024-01-30T01:49:12;21.50;;;11.13;;
16660;SDS011;8444;52.012;5.048;2024-01-30T01:51:38;15.97;;;10.80;;
16660;SDS011;8444;52.012;5.048;2024-01-30T01:54:06;16.67;;;11.20;;
16660;SDS011;8444;52.012;5.048;2024-01-30T01:56:31;13.50;;;9.83;;
16660;SDS011;8444;52.012;5.048;2024-01-30T01:58:59;17.70;;;10.77;;
16660;SDS011;8444;52.012;5.048;2024-01-30T02:01:25;16.77;;;10.93;;
16660;SDS011;8444;52.012;5.048;2024-01-30T02:03:51;19.87;;;11.47;;
16660;SDS011;8444;52.012;5.048;2024-01-30T02:08:43;21.70;;;11.10;;
16660;SDS011;8444;52.012;5.048;2024-01-30T02:11:08;15.17;;;10.40;;
16660;SDS011;8444;52.012;5.048;2024-01-30T02:13:35;18.83;;;11.83;;
16660;SDS011;8444;52.012;5.048;2024-01-30T02:16:00;20.17;;;11.73;;
16660;SDS011;8444;52.012;5.048;2024-01-30T02:18:26;17.67;;;11.43;;
16660;SDS011;8444;52.012;5.048;2024-01-30T02:20:51;19.07;;;10.53;;
16660;SDS011;8444;52.012;5.048;2024-01-30T02:23:18;14.40;;;10.13;;
16660;SDS011;8444;52.012;5.048;2024-01-30T02:25:44;18.43;;;12.07;;
16660;SDS011;8444;52.012;5.048;2024-01-30T02:28:10;17.50;;;10.33;;
16660;SDS011;8444;52.012;5.048;2024-01-30T02:30:36;17.77;;;11.47;;
16660;SDS011;8444;52.012;5.048;2024-01-30T02:33:02;17.20;;;10.53;;
16660;SDS011;8444;52.012;5.048;2024-01-30T02:35:27;17.33;;;10.93;;
16660;SDS011;8444;52.012;5.048;2024-01-30T02:37:52;15.70;;;10.00;;
16660;SDS011;8444;52.012;5.048;2024-01-30T02:40:17;16.90;;;10.27;;
16660;SDS011;8444;52.012;5.048;2024-01-30T02:42:42;16.40;;;9.87;;
16660;SDS011;8444;52.012;5.048;2024-01-30T02:45:09;16.17;;;10.77;;
16660;SDS011;8444;52.012;5.048;2024-01-30T02:47:34;15.67;;;11.10;;
16660;SDS011;8444;52.012;5.048;2024-01-30T02:49:59;13.67;;;9.73;;
16660;SDS011;8444;52.012;5.048;2024-01-30T02:52:25;17.20;;;10.30;;
16660;SDS011;8444;52.012;5.048;2024-01-30T02:54:50;14.43;;;9.93;;
16660;SDS011;8444;52.012;5.048;2024-01-30T02:57:15;15.27;;;10.43;;
16660;SDS011;8444;52.012;5.048;2024-01-30T02:59:40;15.17;;;10.30;;
16660;SDS011;8444;52.012;5.048;2024-01-30T03:02:06;15.27;;;10.90;;
16660;SDS011;8444;52.012;5.048;2024-01-30T03:04:32;16.47;;;11.27;;
16660;SDS011;8444;52.012;5.048;2024-01-30T03:06:57;18.43;;;10.80;;
16660;SDS011;8444;52.012;5.048;2024-01-30T03:09:23;17.10;;;10.93;;
16660;SDS011;8444;52.012;5.048;2024-01-30T03:11:48;17.03;;;11.17;;
16660;SDS011;8444;52.012;5.048;2024-01-30T03:14:13;17.43;;;10.93;;
16660;SDS011;8444;52.012;5.048;2024-01-30T03:16:38;16.83;;;10.47;;
16660;SDS011;8444;52.012;5.048;2024-01-30T03:19:05;20.60;;;11.80;;
16660;SDS011;8444;52.012;5.048;2024-01-30T03:21:31;17.77;;;11.20;;
16660;SDS011;8444;52.012;5.048;2024-01-30T03:23:56;15.40;;;10.00;;
16660;SDS011;8444;52.012;5.048;2024-01-30T03:26:21;15.40;;;10.50;;
16660;SDS011;8444;52.012;5.048;2024-01-30T03:28:46;14.60;;;10.70;;
16660;SDS011;8444;52.012;5.048;2024-01-30T03:31:13;17.70;;;12.10;;
16660;SDS011;8444;52.012;5.048;2024-01-30T03:33:39;15.80;;;10.50;;
16660;SDS011;8444;52.012;5.048;2024-01-30T03:36:04;15.73;;;10.37;;
16660;SDS011;8444;52.012;5.048;2024-01-30T03:38:30;15.97;;;11.03;;
16660;SDS011;8444;52.012;5.048;2024-01-30T03:40:57;19.43;;;10.73;;
16660;SDS011;8444;52.012;5.048;2024-01-30T03:43:22;20.00;;;10.93;;
16660;SDS011;8444;52.012;5.048;2024-01-30T03:45:47;17.43;;;11.20;;
16660;SDS011;8444;52.012;5.048;2024-01-30T03:48:13;17.73;;;12.40;;
16660;SDS011;8444;52.012;5.048;2024-01-30T03:50:38;20.27;;;11.53;;
16660;SDS011;8444;52.012;5.048;2024-01-30T03:53:03;16.93;;;10.87;;
16660;SDS011;8444;52.012;5.048;2024-01-30T03:55:29;17.60;;;10.80;;
16660;SDS011;8444;52.012;5.048;2024-01-30T03:57:54;20.07;;;10.73;;
16660;SDS011;8444;52.012;5.048;2024-01-30T04:00:19;21.30;;;11.30;;
16660;SDS011;8444;52.012;5.048;2024-01-30T04:02:44;15.67;;;11.10;;
16660;SDS011;8444;52.012;5.048;2024-01-30T04:05:10;18.80;;;10.20;;
16660;SDS011;8444;52.012;5.048;2024-01-30T04:07:35;13.20;;;9.00;;
16660;SDS011;8444;52.012;5.048;2024-01-30T04:10:00;13.80;;;9.30;;
16660;SDS011;8444;52.012;5.048;2024-01-30T04:12:25;15.73;;;9.50;;
16660;SDS011;8444;52.012;5.048;2024-01-30T04:14:50;17.80;;;10.00;;
16660;SDS011;8444;52.012;5.048;2024-01-30T04:17:16;16.20;;;9.50;;
16660;SDS011;8444;52.012;5.048;2024-01-30T04:19:41;13.30;;;9.60;;
16660;SDS011;8444;52.012;5.048;2024-01-30T04:22:06;12.87;;;8.77;;
16660;SDS011;8444;52.012;5.048;2024-01-30T04:24:31;13.70;;;9.17;;
16660;SDS011;8444;52.012;5.048;2024-01-30T04:26:57;16.70;;;10.20;;
16660;SDS011;8444;52.012;5.048;2024-01-30T04:29:22;16.37;;;10.27;;
16660;SDS011;8444;52.012;5.048;2024-01-30T04:31:47;14.60;;;9.20;;
16660;SDS011;8444;52.012;5.048;2024-01-30T04:34:12;15.00;;;9.50;;
16660;SDS011;8444;52.012;5.048;2024-01-30T04:36:38;14.77;;;9.83;;
16660;SDS011;8444;52.012;5.048;2024-01-30T04:39:03;13.10;;;8.70;;
16660;SDS011;8444;52.012;5.048;2024-01-30T04:41:28;11.43;;;8.30;;
16660;SDS011;8444;52.012;5.048;2024-01-30T04:43:57;11.70;;;8.27;;
16660;SDS011;8444;52.012;5.048;2024-01-30T04:46:22;13.43;;;9.03;;
16660;SDS011;8444;52.012;5.048;2024-01-30T04:48:47;15.60;;;9.60;;
16660;SDS011;8444;52.012;5.048;2024-01-30T04:51:12;11.93;;;8.50;;
16660;SDS011;8444;52.012;5.048;2024-01-30T04:53:38;17.33;;;9.03;;
16660;SDS011;8444;52.012;5.048;2024-01-30T04:56:05;12.97;;;8.97;;
16660;SDS011;8444;52.012;5.048;2024-01-30T04:58:30;13.67;;;8.73;;
16660;SDS011;8444;52.012;5.048;2024-01-30T05:00:55;16.57;;;8.73;;
16660;SDS011;8444;52.012;5.048;2024-01-30T05:03:20;13.37;;;8.20;;
16660;SDS011;8444;52.012;5.048;2024-01-30T05:05:47;17.90;;;8.80;;
16660;SDS011;8444;52.012;5.048;2024-01-30T05:08:13;14.40;;;8.40;;
16660;SDS011;8444;52.012;5.048;2024-01-30T05:10:38;15.80;;;8.63;;
16660;SDS011;8444;52.012;5.048;2024-01-30T05:13:03;13.87;;;8.13;;
16660;SDS011;8444;52.012;5.048;2024-01-30T05:15:28;11.60;;;7.93;;
16660;SDS011;8444;52.012;5.048;2024-01-30T05:17:54;15.80;;;8.57;;
16660;SDS011;8444;52.012;5.048;2024-01-30T05:20:19;12.07;;;8.30;;
16660;SDS011;8444;52.012;5.048;2024-01-30T05:22:45;15.07;;;8.83;;
16660;SDS011;8444;52.012;5.048;2024-01-30T05:25:10;13.57;;;7.97;;
16660;SDS011;8444;52.012;5.048;2024-01-30T05:27:36;16.53;;;8.43;;
16660;SDS011;8444;52.012;5.048;2024-01-30T05:30:01;11.53;;;7.63;;
16660;SDS011;8444;52.012;5.048;2024-01-30T05:32:26;11.23;;;8.30;;
16660;SDS011;8444;52.012;5.048;2024-01-30T05:34:51;10.93;;;7.87;;
16660;SDS011;8444;52.012;5.048;2024-01-30T05:37:17;13.33;;;8.47;;
16660;SDS011;8444;52.012;5.048;2024-01-30T05:39:42;11.17;;;7.53;;
16660;SDS011;8444;52.012;5.048;2024-01-30T05:42:08;11.90;;;7.27;;
16660;SDS011;8444;52.012;5.048;2024-01-30T05:44:33;13.20;;;7.40;;
16660;SDS011;8444;52.012;5.048;2024-01-30T05:46:58;12.17;;;7.47;;
16660;SDS011;8444;52.012;5.048;2024-01-30T05:49:23;12.00;;;7.97;;
16660;SDS011;8444;52.012;5.048;2024-01-30T05:51:49;13.17;;;7.87;;
16660;SDS011;8444;52.012;5.048;2024-01-30T05:54:14;12.17;;;7.33;;
16660;SDS011;8444;52.012;5.048;2024-01-30T05:56:39;13.07;;;8.17;;
16660;SDS011;8444;52.012;5.048;2024-01-30T05:59:04;13.37;;;7.63;;
16660;SDS011;8444;52.012;5.048;2024-01-30T06:01:30;11.10;;;7.83;;
16660;SDS011;8444;52.012;5.048;2024-01-30T06:03:55;10.87;;;7.27;;
16660;SDS011;8444;52.012;5.048;2024-01-30T06:06:20;11.33;;;7.23;;
16660;SDS011;8444;52.012;5.048;2024-01-30T06:08:45;12.63;;;7.60;;
16660;SDS011;8444;52.012;5.048;2024-01-30T06:11:11;12.77;;;8.30;;
16660;SDS011;8444;52.012;5.048;2024-01-30T06:13:37;11.67;;;7.80;;
16660;SDS011;8444;52.012;5.048;2024-01-30T06:16:02;12.83;;;8.30;;
16660;SDS011;8444;52.012;5.048;2024-01-30T06:18:27;13.00;;;7.87;;
16660;SDS011;8444;52.012;5.048;2024-01-30T06:20:54;12.43;;;7.63;;
16660;SDS011;8444;52.012;5.048;2024-01-30T06:23:19;10.13;;;7.63;;
16660;SDS011;8444;52.012;5.048;2024-01-30T06:25:44;13.23;;;8.13;;
16660;SDS011;8444;52.012;5.048;2024-01-30T06:28:10;12.07;;;8.17;;
16660;SDS011;8444;52.012;5.048;2024-01-30T06:30:35;9.70;;;7.00;;
16660;SDS011;8444;52.012;5.048;2024-01-30T06:33:00;14.67;;;7.70;;
16660;SDS011;8444;52.012;5.048;2024-01-30T06:35:25;15.17;;;8.27;;
16660;SDS011;8444;52.012;5.048;2024-01-30T06:37:50;12.57;;;7.73;;
16660;SDS011;8444;52.012;5.048;2024-01-30T06:40:16;14.87;;;8.33;;
16660;SDS011;8444;52.012;5.048;2024-01-30T06:42:41;10.80;;;7.53;;
16660;SDS011;8444;52.012;5.048;2024-01-30T06:45:06;11.23;;;6.83;;
16660;SDS011;8444;52.012;5.048;2024-01-30T06:47:33;10.33;;;6.60;;
16660;SDS011;8444;52.012;5.048;2024-01-30T06:49:58;13.43;;;7.13;;
16660;SDS011;8444;52.012;5.048;2024-01-30T06:52:23;11.03;;;7.20;;
16660;SDS011;8444;52.012;5.048;2024-01-30T06:54:48;12.17;;;7.37;;
16660;SDS011;8444;52.012;5.048;2024-01-30T06:57:13;13.10;;;7.43;;
16660;SDS011;8444;52.012;5.048;2024-01-30T06:59:39;10.80;;;7.53;;
16660;SDS011;8444;52.012;5.048;2024-01-30T07:02:09;14.17;;;8.03;;
16660;SDS011;8444;52.012;5.048;2024-01-30T07:04:34;12.63;;;7.13;;
16660;SDS011;8444;52.012;5.048;2024-01-30T07:07:00;10.13;;;6.73;;
16660;SDS011;8444;52.012;5.048;2024-01-30T07:09:25;14.13;;;8.17;;
16660;SDS011;8444;52.012;5.048;2024-01-30T07:11:51;11.67;;;6.50;;
16660;SDS011;8444;52.012;5.048;2024-01-30T07:14:16;13.67;;;7.17;;
16660;SDS011;8444;52.012;5.048;2024-01-30T07:16:42;14.10;;;7.13;;
16660;SDS011;8444;52.012;5.048;2024-01-30T07:19:07;10.67;;;7.13;;
16660;SDS011;8444;52.012;5.048;2024-01-30T07:21:34;13.43;;;7.60;;
16660;SDS011;8444;52.012;5.048;2024-01-30T07:23:59;11.07;;;7.37;;
16660;SDS011;8444;52.012;5.048;2024-01-30T07:26:24;12.73;;;7.00;;
16660;SDS011;8444;52.012;5.048;2024-01-30T07:28:49;12.50;;;7.70;;
16660;SDS011;8444;52.012;5.048;2024-01-30T07:31:15;13.17;;;6.27;;
16660;SDS011;8444;52.012;5.048;2024-01-30T07:33:41;12.73;;;6.67;;
16660;SDS011;8444;52.012;5.048;2024-01-30T07:36:06;15.83;;;7.40;;
16660;SDS011;8444;52.012;5.048;2024-01-30T07:38:31;11.83;;;7.20;;
16660;SDS011;8444;52.012;5.048;2024-01-30T07:40:56;12.33;;;6.93;;
16660;SDS011;8444;52.012;5.048;2024-01-30T07:43:22;12.60;;;7.43;;
16660;SDS011;8444;52.012;5.048;2024-01-30T07:45:47;12.37;;;6.57;;
16660;SDS011;8444;52.012;5.048;2024-01-30T07:48:12;15.40;;;7.53;;
16660;SDS011;8444;52.012;5.048;2024-01-30T07:50:39;11.50;;;7.00;;
16660;SDS011;8444;52.012;5.048;2024-01-30T07:53:04;15.90;;;7.90;;
16660;SDS011;8444;52.012;5.048;2024-01-30T07:55:29;10.03;;;7.03;;
16660;SDS011;8444;52.012;5.048;2024-01-30T07:57:56;10.20;;;6.70;;
16660;SDS011;8444;52.012;5.048;2024-01-30T08:00:22;10.03;;;7.27;;
16660;SDS011;8444;52.012;5.048;2024-01-30T08:02:53;12.27;;;7.07;;
16660;SDS011;8444;52.012;5.048;2024-01-30T08:05:20;11.17;;;7.17;;
16660;SDS011;8444;52.012;5.048;2024-01-30T08:07:47;11.50;;;7.23;;
16660;SDS011;8444;52.012;5.048;2024-01-30T08:10:12;15.93;;;8.57;;
16660;SDS011;8444;52.012;5.048;2024-01-30T08:12:40;12.60;;;7.63;;
16660;SDS011;8444;52.012;5.048;2024-01-30T08:15:06;14.43;;;7.00;;
16660;SDS011;8444;52.012;5.048;2024-01-30T08:17:31;13.40;;;7.40;;
16660;SDS011;8444;52.012;5.048;2024-01-30T08:19:56;12.97;;;7.10;;
16660;SDS011;8444;52.012;5.048;2024-01-30T08:22:21;12.60;;;7.40;;
16660;SDS011;8444;52.012;5.048;2024-01-30T08:24:47;11.73;;;6.90;;
16660;SDS011;8444;52.012;5.048;2024-01-30T08:27:12;13.10;;;7.60;;
16660;SDS011;8444;52.012;5.048;2024-01-30T08:29:37;13.80;;;7.13;;
16660;SDS011;8444;52.012;5.048;2024-01-30T08:32:03;14.47;;;8.03;;
16660;SDS011;8444;52.012;5.048;2024-01-30T08:34:28;15.57;;;7.63;;
16660;SDS011;8444;52.012;5.048;2024-01-30T08:36:54;12.20;;;6.60;;
16660;SDS011;8444;52.012;5.048;2024-01-30T08:39:19;11.10;;;6.55;;
16660;SDS011;8444;52.012;5.048;2024-01-30T08:41:44;16.70;;;7.10;;
16660;SDS011;8444;52.012;5.048;2024-01-30T08:44:10;13.63;;;8.20;;
16660;SDS011;8444;52.012;5.048;2024-01-30T08:46:36;16.20;;;7.57;;
16660;SDS011;8444;52.012;5.048;2024-01-30T08:49:01;14.27;;;6.82;;
16660;SDS011;8444;52.012;5.048;2024-01-30T08:51:26;11.52;;;6.60;;
16660;SDS011;8444;52.012;5.048;2024-01-30T08:53:51;12.52;;;7.18;;
16660;SDS011;8444;52.012;5.048;2024-01-30T08:56:18;12.18;;;7.20;;
16660;SDS011;8444;52.012;5.048;2024-01-30T08:58:44;13.63;;;7.20;;
16660;SDS011;8444;52.012;5.048;2024-01-30T09:01:09;9.20;;;6.85;;
16660;SDS011;8444;52.012;5.048;2024-01-30T09:03:34;13.98;;;7.32;;
16660;SDS011;8444;52.012;5.048;2024-01-30T09:05:59;10.32;;;6.97;;
16660;SDS011;8444;52.012;5.048;2024-01-30T09:08:24;17.20;;;7.43;;
16660;SDS011;8444;52.012;5.048;2024-01-30T09:10:50;12.43;;;6.93;;
16660;SDS011;8444;52.012;5.048;2024-01-30T09:13:15;16.05;;;7.50;;
16660;SDS011;8444;52.012;5.048;2024-01-30T09:15:41;11.98;;;7.10;;
16660;SDS011;8444;52.012;5.048;2024-01-30T09:18:06;12.30;;;7.07;;
16660;SDS011;8444;52.012;5.048;2024-01-30T09:20:31;11.82;;;6.93;;
16660;SDS011;8444;52.012;5.048;2024-01-30T09:22:56;12.45;;;7.18;;
16660;SDS011;8444;52.012;5.048;2024-01-30T09:25:22;9.82;;;6.60;;
16660;SDS011;8444;52.012;5.048;2024-01-30T09:27:47;10.93;;;6.65;;
16660;SDS011;8444;52.012;5.048;2024-01-30T09:30:12;12.65;;;7.22;;
16660;SDS011;8444;52.012;5.048;2024-01-30T09:32:39;11.98;;;7.13;;
16660;SDS011;8444;52.012;5.048;2024-01-30T09:35:04;13.75;;;7.05;;
16660;SDS011;8444;52.012;5.048;2024-01-30T09:37:29;16.77;;;7.03;;
16660;SDS011;8444;52.012;5.048;2024-01-30T09:39:54;10.52;;;7.38;;
16660;SDS011;8444;52.012;5.048;2024-01-30T09:42:36;10.98;;;6.57;;
16660;SDS011;8444;52.012;5.048;2024-01-30T09:45:01;12.13;;;7.40;;
16660;SDS011;8444;52.012;5.048;2024-01-30T09:47:28;14.60;;;7.05;;
16660;SDS011;8444;52.012;5.048;2024-01-30T09:49:53;10.98;;;6.75;;
16660;SDS011;8444;52.012;5.048;2024-01-30T09:52:19;12.95;;;7.00;;
16660;SDS011;8444;52.012;5.048;2024-01-30T09:54:44;14.48;;;7.38;;
16660;SDS011;8444;52.012;5.048;2024-01-30T09:57:11;12.77;;;7.78;;
16660;SDS011;8444;52.012;5.048;2024-01-30T09:59:36;12.68;;;6.38;;
16660;SDS011;8444;52.012;5.048;2024-01-30T10:02:01;14.77;;;6.65;;
16660;SDS011;8444;52.012;5.048;2024-01-30T10:04:29;14.02;;;6.80;;
16660;SDS011;8444;52.012;5.048;2024-01-30T10:06:54;13.55;;;7.93;;
16660;SDS011;8444;52.012;5.048;2024-01-30T10:09:19;12.32;;;7.18;;
16660;SDS011;8444;52.012;5.048;2024-01-30T10:11:44;14.75;;;6.60;;
16660;SDS011;8444;52.012;5.048;2024-01-30T10:14:09;9.98;;;6.47;;
16660;SDS011;8444;52.012;5.048;2024-01-30T10:16:35;11.52;;;6.82;;
16660;SDS011;8444;52.012;5.048;2024-01-30T10:19:00;11.05;;;6.47;;
16660;SDS011;8444;52.012;5.048;2024-01-30T10:21:25;12.13;;;6.97;;
16660;SDS011;8444;52.012;5.048;2024-01-30T10:23:50;9.02;;;6.32;;
16660;SDS011;8444;52.012;5.048;2024-01-30T10:26:16;14.93;;;6.32;;
16660;SDS011;8444;52.012;5.048;2024-01-30T10:28:42;11.35;;;6.45;;
16660;SDS011;8444;52.012;5.048;2024-01-30T10:31:07;12.57;;;5.85;;
16660;SDS011;8444;52.012;5.048;2024-01-30T10:33:32;12.43;;;6.60;;
16660;SDS011;8444;52.012;5.048;2024-01-30T10:36:00;10.48;;;6.43;;
16660;SDS011;8444;52.012;5.048;2024-01-30T10:38:27;11.48;;;6.20;;
16660;SDS011;8444;52.012;5.048;2024-01-30T10:40:53;11.88;;;6.00;;
16660;SDS011;8444;52.012;5.048;2024-01-30T10:43:21;9.88;;;5.97;;
16660;SDS011;8444;52.012;5.048;2024-01-30T10:45:47;10.93;;;6.45;;
16660;SDS011;8444;52.012;5.048;2024-01-30T10:48:14;13.48;;;6.75;;
16660;SDS011;8444;52.012;5.048;2024-01-30T10:50:40;11.25;;;6.20;;
16660;SDS011;8444;52.012;5.048;2024-01-30T10:53:05;12.30;;;6.80;;
16660;SDS011;8444;52.012;5.048;2024-01-30T10:55:31;12.80;;;5.78;;
16660;SDS011;8444;52.012;5.048;2024-01-30T10:57:56;8.43;;;5.65;;
16660;SDS011;8444;52.012;5.048;2024-01-30T11:00:21;9.65;;;6.00;;
16660;SDS011;8444;52.012;5.048;2024-01-30T11:02:49;8.38;;;4.28;;
16660;SDS011;8444;52.012;5.048;2024-01-30T11:05:14;8.98;;;3.90;;
16660;SDS011;8444;52.012;5.048;2024-01-30T11:07:48;5.03;;;2.38;;
16660;SDS011;8444;52.012;5.048;2024-01-30T11:10:13;6.85;;;2.63;;
16660;SDS011;8444;52.012;5.048;2024-01-30T11:12:40;6.68;;;3.10;;
16660;SDS011;8444;52.012;5.048;2024-01-30T11:15:15;7.53;;;3.15;;
16660;SDS011;8444;52.012;5.048;2024-01-30T11:17:41;4.85;;;1.90;;
16660;SDS011;8444;52.012;5.048;2024-01-30T11:20:09;7.68;;;1.90;;
16660;SDS011;8444;52.012;5.048;2024-01-30T11:22:34;4.40;;;1.55;;
16660;SDS011;8444;52.012;5.048;2024-01-30T11:25:01;4.85;;;1.88;;
16660;SDS011;8444;52.012;5.048;2024-01-30T11:27:28;3.17;;;1.40;;
16660;SDS011;8444;52.012;5.048;2024-01-30T11:29:53;3.63;;;1.42;;
16660;SDS011;8444;52.012;5.048;2024-01-30T11:32:22;4.25;;;1.35;;
16660;SDS011;8444;52.012;5.048;2024-01-30T11:34:48;5.43;;;1.65;;
16660;SDS011;8444;52.012;5.048;2024-01-30T11:37:14;3.45;;;1.23;;
16660;SDS011;8444;52.012;5.048;2024-01-30T11:39:40;7.03;;;1.20;;
16660;SDS011;8444;52.012;5.048;2024-01-30T11:42:06;4.63;;;1.67;;
16660;SDS011;8444;52.012;5.048;2024-01-30T11:44:33;2.03;;;1.40;;
16660;SDS011;8444;52.012;5.048;2024-01-30T11:46:58;6.47;;;1.75;;
16660;SDS011;8444;52.012;5.048;2024-01-30T11:49:24;4.78;;;1.58;;
16660;SDS011;8444;52.012;5.048;2024-01-30T11:51:49;3.08;;;1.52;;
16660;SDS011;8444;52.012;5.048;2024-01-30T11:54:17;5.10;;;2.00;;
16660;SDS011;8444;52.012;5.048;2024-01-30T11:56:42;4.68;;;2.40;;
16660;SDS011;8444;52.012;5.048;2024-01-30T11:59:11;9.25;;;3.50;;
16660;SDS011;8444;52.012;5.048;2024-01-30T12:01:36;4.30;;;2.65;;
16660;SDS011;8444;52.012;5.048;2024-01-30T12:04:01;5.87;;;2.30;;
16660;SDS011;8444;52.012;5.048;2024-01-30T12:06:26;7.17;;;2.90;;
16660;SDS011;8444;52.012;5.048;2024-01-30T12:08:58;9.33;;;2.10;;
16660;SDS011;8444;52.012;5.048;2024-01-30T12:11:24;3.33;;;1.80;;
16660;SDS011;8444;52.012;5.048;2024-01-30T12:13:51;2.97;;;1.90;;
16660;SDS011;8444;52.012;5.048;2024-01-30T12:16:16;7.90;;;2.40;;
16660;SDS011;8444;52.012;5.048;2024-01-30T12:18:42;3.63;;;1.80;;
16660;SDS011;8444;52.012;5.048;2024-01-30T12:21:07;6.93;;;1.93;;
16660;SDS011;8444;52.012;5.048;2024-01-30T12:23:34;4.77;;;1.53;;
16660;SDS011;8444;52.012;5.048;2024-01-30T12:26:00;1.93;;;1.70;;
16660;SDS011;8444;52.012;5.048;2024-01-30T12:28:26;6.37;;;1.43;;
16660;SDS011;8444;52.012;5.048;2024-01-30T12:30:55;5.83;;;1.57;;
16660;SDS011;8444;52.012;5.048;2024-01-30T12:33:20;4.60;;;1.93;;
16660;SDS011;8444;52.012;5.048;2024-01-30T12:35:46;4.83;;;2.00;;
16660;SDS011;8444;52.012;5.048;2024-01-30T12:38:12;4.60;;;1.70;;
16660;SDS011;8444;52.012;5.048;2024-01-30T12:40:38;3.87;;;1.23;;
16660;SDS011;8444;52.012;5.048;2024-01-30T12:43:04;5.57;;;1.60;;
16660;SDS011;8444;52.012;5.048;2024-01-30T12:45:29;2.50;;;1.40;;
16660;SDS011;8444;52.012;5.048;2024-01-30T12:47:55;5.03;;;1.37;;
16660;SDS011;8444;52.012;5.048;2024-01-30T12:50:20;2.47;;;0.90;;
16660;SDS011;8444;52.012;5.048;2024-01-30T12:52:45;3.27;;;0.87;;
16660;SDS011;8444;52.012;5.048;2024-01-30T12:55:10;3.00;;;0.67;;
16660;SDS011;8444;52.012;5.048;2024-01-30T12:57:36;2.10;;;0.50;;
16660;SDS011;8444;52.012;5.048;2024-01-30T13:00:01;2.60;;;0.73;;
16660;SDS011;8444;52.012;5.048;2024-01-30T13:02:26;3.80;;;0.83;;
16660;SDS011;8444;52.012;5.048;2024-01-30T13:04:59;0.87;;;0.40;;
16660;SDS011;8444;52.012;5.048;2024-01-30T13:07:24;1.60;;;0.40;;
16660;SDS011;8444;52.012;5.048;2024-01-30T13:09:50;1.47;;;0.70;;
16660;SDS011;8444;52.012;5.048;2024-01-30T13:12:15;1.43;;;1.03;;
16660;SDS011;8444;52.012;5.048;2024-01-30T13:14:40;2.17;;;0.70;;
16660;SDS011;8444;52.012;5.048;2024-01-30T13:17:05;2.80;;;1.03;;
16660;SDS011;8444;52.012;5.048;2024-01-30T13:19:30;2.97;;;0.80;;
16660;SDS011;8444;52.012;5.048;2024-01-30T13:21:56;3.20;;;0.97;;
16660;SDS011;8444;52.012;5.048;2024-01-30T13:24:21;1.17;;;0.53;;
16660;SDS011;8444;52.012;5.048;2024-01-30T13:26:46;3.67;;;0.90;;
16660;SDS011;8444;52.012;5.048;2024-01-30T13:29:11;1.83;;;0.70;;
16660;SDS011;8444;52.012;5.048;2024-01-30T13:31:37;4.07;;;1.50;;
16660;SDS011;8444;52.012;5.048;2024-01-30T13:34:02;1.63;;;0.70;;
16660;SDS011;8444;52.012;5.048;2024-01-30T13:36:27;3.47;;;1.37;;
16660;SDS011;8444;52.012;5.048;2024-01-30T13:38:52;1.67;;;0.70;;
16660;SDS011;8444;52.012;5.048;2024-01-30T13:41:18;3.23;;;0.60;;
16660;SDS011;8444;52.012;5.048;2024-01-30T13:43:43;1.40;;;1.03;;
16660;SDS011;8444;52.012;5.048;2024-01-30T13:46:08;4.60;;;0.80;;
16660;SDS011;8444;52.012;5.048;2024-01-30T13:48:34;4.03;;;0.70;;
16660;SDS011;8444;52.012;5.048;2024-01-30T13:50:59;6.07;;;1.07;;
16660;SDS011;8444;52.012;5.048;2024-01-30T13:53:24;4.67;;;0.93;;
16660;SDS011;8444;52.012;5.048;2024-01-30T13:55:49;7.57;;;1.23;;
16660;SDS011;8444;52.012;5.048;2024-01-30T13:58:15;2.00;;;0.97;;
16660;SDS011;8444;52.012;5.048;2024-01-30T14:00:40;9.27;;;1.60;;
16660;SDS011;8444;52.012;5.048;2024-01-30T14:03:05;2.73;;;0.90;;
16660;SDS011;8444;52.012;5.048;2024-01-30T14:05:30;4.10;;;0.90;;
16660;SDS011;8444;52.012;5.048;2024-01-30T14:07:56;5.27;;;1.37;;
16660;SDS011;8444;52.012;5.048;2024-01-30T14:10:22;2.73;;;1.10;;
16660;SDS011;8444;52.012;5.048;2024-01-30T14:12:47;5.10;;;1.03;;
16660;SDS011;8444;52.012;5.048;2024-01-30T14:15:13;6.73;;;1.57;;
16660;SDS011;8444;52.012;5.048;2024-01-30T14:17:39;6.90;;;1.60;;
16660;SDS011;8444;52.012;5.048;2024-01-30T14:20:05;2.97;;;1.23;;
16660;SDS011;8444;52.012;5.048;2024-01-30T14:22:31;5.83;;;1.27;;
16660;SDS011;8444;52.012;5.048;2024-01-30T14:24:56;3.30;;;0.90;;
16660;SDS011;8444;52.012;5.048;2024-01-30T14:27:21;2.43;;;1.30;;
16660;SDS011;8444;52.012;5.048;2024-01-30T14:29:46;2.73;;;1.03;;
16660;SDS011;8444;52.012;5.048;2024-01-30T14:32:12;6.83;;;1.97;;
16660;SDS011;8444;52.012;5.048;2024-01-30T14:34:37;3.03;;;2.10;;
16660;SDS011;8444;52.012;5.048;2024-01-30T14:37:02;3.23;;;1.40;;
16660;SDS011;8444;52.012;5.048;2024-01-30T14:39:27;2.53;;;1.63;;